createdAt,value
2019-06-27T00:00:30.808Z,68.57
2019-06-27T00:03:00.508Z,68.07
2019-06-27T00:05:30.421Z,67.42
2019-06-27T00:08:00.144Z,68.08
2019-06-27T00:10:29.774Z,67.59
2019-06-27T00:12:59.297Z,67.60
2019-06-27T00:15:29.060Z,68.00
2019-06-27T00:17:58.723Z,67.83
2019-06-27T00:20:28.481Z,67.44
2019-06-27T00:22:58.182Z,67.28
2019-06-27T00:25:27.895Z,67.63
2019-06-27T00:27:57.480Z,66.73
2019-06-27T00:30:27.351Z,66.37
2019-06-27T00:32:56.903Z,66.54
2019-06-27T00:35:26.656Z,66.45
2019-06-27T00:37:56.450Z,66.85
2019-06-27T00:40:26.289Z,66.83
2019-06-27T00:42:56.132Z,67.13
2019-06-27T00:45:25.945Z,67.12
2019-06-27T00:47:55.725Z,67.25
2019-06-27T00:50:25.482Z,67.16
2019-06-27T00:52:55.141Z,67.20
2019-06-27T00:55:24.834Z,66.92
2019-06-27T00:57:54.481Z,67.27
2019-06-27T01:00:24.431Z,67.42
2019-06-27T01:02:54.057Z,67.19
2019-06-27T01:05:23.798Z,67.16
2019-06-27T01:07:53.472Z,67.36
2019-06-27T01:10:23.588Z,67.41
2019-06-27T01:12:53.381Z,67.28
2019-06-27T01:15:23.355Z,67.72
2019-06-27T01:17:53.026Z,67.58
2019-06-27T01:20:22.993Z,67.92
2019-06-27T01:22:52.746Z,67.97
2019-06-27T01:25:22.677Z,67.93
2019-06-27T01:27:52.520Z,68.05
2019-06-27T01:30:24.017Z,67.97
2019-06-27T01:32:53.592Z,67.91
2019-06-27T01:35:23.612Z,67.96
2019-06-27T01:37:53.144Z,68.18
2019-06-27T01:40:23.044Z,68.42
2019-06-27T01:42:52.844Z,68.59
2019-06-27T01:45:28.189Z,68.90
2019-06-27T01:47:57.912Z,68.86
2019-06-27T01:50:27.704Z,69.14
2019-06-27T01:52:57.330Z,69.35
2019-06-27T01:55:27.149Z,69.32
2019-06-27T01:57:56.955Z,69.52
2019-06-27T02:00:27.482Z,69.47
2019-06-27T02:02:57.425Z,69.62
2019-06-27T02:05:27.058Z,69.36
2019-06-27T02:07:56.804Z,69.69
2019-06-27T02:10:26.658Z,69.63
2019-06-27T02:12:56.450Z,69.91
2019-06-27T02:15:26.370Z,69.98
2019-06-27T02:17:56.245Z,70.18
2019-06-27T02:20:26.007Z,70.06
2019-06-27T02:22:55.741Z,69.80
2019-06-27T02:25:26.674Z,70.10
2019-06-27T02:28:03.764Z,70.06
2019-06-27T02:30:39.538Z,70.48
2019-06-27T02:33:09.917Z,70.59
2019-06-27T02:35:39.828Z,70.56
2019-06-27T02:38:12.422Z,70.67
2019-06-27T02:40:42.324Z,70.77
2019-06-27T02:43:11.885Z,70.91
2019-06-27T02:45:41.564Z,70.64
2019-06-27T02:48:11.423Z,70.68
2019-06-27T02:50:41.065Z,70.21
2019-06-27T02:53:10.781Z,70.22
2019-06-27T02:55:40.455Z,70.46
2019-06-27T02:58:29.111Z,70.88
2019-06-27T03:00:41.708Z,70.73
2019-06-27T03:03:11.621Z,70.65
2019-06-27T03:05:41.521Z,70.74
2019-06-27T03:08:12.392Z,70.66
2019-06-27T03:10:42.301Z,70.84
2019-06-27T03:13:12.129Z,70.63
2019-06-27T03:15:41.685Z,70.82
2019-06-27T03:18:11.353Z,70.82
2019-06-27T03:20:40.949Z,70.88
2019-06-27T03:23:10.803Z,70.50
2019-06-27T03:25:40.582Z,70.42
2019-06-27T03:28:11.143Z,70.70
2019-06-27T03:30:40.941Z,70.38
2019-06-27T03:33:10.541Z,70.58
2019-06-27T03:35:40.206Z,70.42
2019-06-27T03:38:11.303Z,71.03
2019-06-27T03:40:40.953Z,70.81
2019-06-27T03:43:10.838Z,70.60
2019-06-27T03:45:40.542Z,70.63
2019-06-27T03:48:10.068Z,70.24
2019-06-27T03:50:40.033Z,70.14
2019-06-27T03:53:09.692Z,69.88
2019-06-27T03:55:39.368Z,70.27
2019-06-27T03:58:10.155Z,70.82
2019-06-27T04:00:39.818Z,70.29
2019-06-27T04:03:09.618Z,69.51
2019-06-27T04:05:39.335Z,69.25
2019-06-27T04:08:10.426Z,69.18
2019-06-27T04:10:40.154Z,69.28
2019-06-27T04:13:09.839Z,68.71
2019-06-27T04:15:39.535Z,69.02
2019-06-27T04:18:09.371Z,69.11
2019-06-27T04:20:39.183Z,68.86
2019-06-27T04:23:09.052Z,68.60
2019-06-27T04:25:38.817Z,68.65
2019-06-27T04:28:08.597Z,68.51
2019-06-27T04:30:38.231Z,68.16
2019-06-27T04:33:07.920Z,68.35
2019-06-27T04:35:37.708Z,67.88
2019-06-27T04:38:07.467Z,68.27
2019-06-27T04:40:37.154Z,67.85
2019-06-27T04:43:07.008Z,67.73
2019-06-27T04:45:36.657Z,67.84
2019-06-27T04:48:06.406Z,68.43
2019-06-27T04:50:36.274Z,67.49
2019-06-27T04:53:05.990Z,67.49
2019-06-27T04:55:35.915Z,66.83
2019-06-27T04:58:05.478Z,66.87
2019-06-27T05:00:35.327Z,66.83
2019-06-27T05:03:04.995Z,66.64
2019-06-27T05:05:34.971Z,66.56
2019-06-27T05:08:04.837Z,66.79
2019-06-27T05:10:34.493Z,66.82
2019-06-27T05:13:04.533Z,66.72
2019-06-27T05:15:34.559Z,66.70
2019-06-27T05:18:04.176Z,66.80
2019-06-27T05:20:33.795Z,66.12
2019-06-27T05:23:03.607Z,66.06
2019-06-27T05:25:33.409Z,65.37
2019-06-27T05:28:03.148Z,65.05
2019-06-27T05:30:32.845Z,64.74
2019-06-27T05:33:02.561Z,64.28
2019-06-27T05:35:32.537Z,64.28
2019-06-27T05:38:02.478Z,64.22
2019-06-27T05:40:32.264Z,64.06
2019-06-27T05:43:02.052Z,63.81
2019-06-27T05:45:31.791Z,63.75
2019-06-27T05:48:01.602Z,63.53
2019-06-27T05:50:31.266Z,63.69
2019-06-27T05:53:00.951Z,63.85
2019-06-27T05:55:30.612Z,63.08
2019-06-27T05:58:00.309Z,63.24
2019-06-27T06:00:30.179Z,63.28
2019-06-27T06:02:59.972Z,63.66
2019-06-27T06:05:29.755Z,63.29
2019-06-27T06:07:59.650Z,62.69
2019-06-27T06:10:29.372Z,62.72
2019-06-27T06:12:59.301Z,62.09
2019-06-27T06:15:29.234Z,61.63
2019-06-27T06:17:58.960Z,61.25
2019-06-27T06:20:29.042Z,61.82
2019-06-27T06:22:58.752Z,61.22
2019-06-27T06:25:28.484Z,60.83
2019-06-27T06:27:58.798Z,61.00
2019-06-27T06:30:43.313Z,60.29
2019-06-27T06:33:00.477Z,60.03
2019-06-27T06:35:30.299Z,60.01
2019-06-27T06:38:00.200Z,59.98
2019-06-27T06:40:29.907Z,59.92
2019-06-27T06:43:00.721Z,59.96
2019-06-27T06:45:30.503Z,59.73
2019-06-27T06:48:00.137Z,59.53
2019-06-27T06:50:29.902Z,59.88
2019-06-27T06:52:59.596Z,58.97
2019-06-27T06:55:29.445Z,59.39
2019-06-27T06:57:59.381Z,58.43
2019-06-27T07:00:29.117Z,58.43
2019-06-27T07:02:58.706Z,58.10
2019-06-27T07:05:28.479Z,59.17
2019-06-27T07:07:58.315Z,58.01
2019-06-27T07:10:28.043Z,57.55
2019-06-27T07:12:57.991Z,57.79
2019-06-27T07:15:27.573Z,58.61
2019-06-27T07:17:57.349Z,57.34
2019-06-27T07:20:27.151Z,56.81
2019-06-27T07:22:57.016Z,56.56
2019-06-27T07:25:26.752Z,56.46
2019-06-27T07:27:56.407Z,56.49
2019-06-27T07:30:26.277Z,55.92
2019-06-27T07:32:55.965Z,56.24
2019-06-27T07:35:25.592Z,55.74
2019-06-27T07:37:55.419Z,54.78
2019-06-27T07:40:25.220Z,55.82
2019-06-27T07:42:54.818Z,54.34
2019-06-27T07:45:24.870Z,54.47
2019-06-27T07:47:54.569Z,54.12
2019-06-27T07:50:24.364Z,54.70
2019-06-27T07:52:54.158Z,54.39
2019-06-27T07:55:24.889Z,54.33
2019-06-27T07:57:54.684Z,54.16
2019-06-27T08:00:26.224Z,54.68
2019-06-27T08:02:56.009Z,54.45
2019-06-27T08:05:25.577Z,54.39
2019-06-27T08:07:55.264Z,55.65
2019-06-27T08:10:25.054Z,54.54
2019-06-27T08:12:54.677Z,54.63
2019-06-27T08:15:24.423Z,56.09
2019-06-27T08:17:54.040Z,54.48
2019-06-27T08:20:23.790Z,55.28
2019-06-27T08:22:53.364Z,55.10
2019-06-27T08:25:23.158Z,54.89
2019-06-27T08:27:52.917Z,55.22
2019-06-27T08:30:23.156Z,55.42
2019-06-27T08:32:53.460Z,54.66
2019-06-27T08:35:23.213Z,54.93
2019-06-27T08:37:52.868Z,54.33
2019-06-27T08:40:22.588Z,53.97
2019-06-27T08:42:52.640Z,53.86
2019-06-27T08:45:22.762Z,53.51
2019-06-27T08:47:52.386Z,53.76
2019-06-27T08:50:22.351Z,53.51
2019-06-27T08:52:51.974Z,53.46
2019-06-27T08:55:21.811Z,53.10
2019-06-27T08:57:51.474Z,53.08
2019-06-27T09:00:21.508Z,50.69
2019-06-27T09:02:51.223Z,51.11
2019-06-27T09:05:20.853Z,52.04
2019-06-27T09:07:50.660Z,52.34
2019-06-27T09:10:20.445Z,52.20
2019-06-27T09:12:50.038Z,52.93
2019-06-27T09:15:19.863Z,50.83
2019-06-27T09:17:49.506Z,51.50
2019-06-27T09:20:19.356Z,52.37
2019-06-27T09:22:48.995Z,52.94
2019-06-27T09:25:18.641Z,52.20
2019-06-27T09:27:48.254Z,52.25
2019-06-27T09:30:18.380Z,51.86
2019-06-27T09:32:48.114Z,51.36
2019-06-27T09:35:17.926Z,52.10
2019-06-27T09:37:47.873Z,53.11
2019-06-27T09:40:18.053Z,51.71
2019-06-27T09:42:47.834Z,52.00
2019-06-27T09:45:18.288Z,52.13
2019-06-27T09:47:48.039Z,50.40
2019-06-27T09:50:21.432Z,50.48
2019-06-27T09:52:49.441Z,50.21
2019-06-27T09:55:21.064Z,49.94
2019-06-27T09:57:50.897Z,49.55
2019-06-27T10:00:22.552Z,48.88
2019-06-27T10:02:52.911Z,47.08
2019-06-27T10:05:22.572Z,47.31
2019-06-27T10:07:52.403Z,50.19
2019-06-27T10:10:22.640Z,49.10
2019-06-27T10:12:54.565Z,49.16
2019-06-27T10:15:24.413Z,48.52
2019-06-27T10:17:55.013Z,49.73
2019-06-27T10:20:24.812Z,49.31
2019-06-27T10:22:54.672Z,49.13
2019-06-27T10:25:24.884Z,47.67
2019-06-27T10:27:54.988Z,47.49
2019-06-27T10:30:26.043Z,46.93
2019-06-27T10:32:59.693Z,48.27
2019-06-27T10:35:27.528Z,46.82
2019-06-27T10:37:57.249Z,47.76
2019-06-27T10:40:27.040Z,46.70
2019-06-27T10:42:56.770Z,48.02
2019-06-27T10:45:26.540Z,46.00
2019-06-27T10:47:56.462Z,44.86
2019-06-27T10:50:26.069Z,45.53
2019-06-27T10:52:55.752Z,44.71
2019-06-27T10:55:25.634Z,43.29
2019-06-27T10:57:55.414Z,44.06
2019-06-27T11:00:25.564Z,43.41
2019-06-27T11:02:55.322Z,42.42
2019-06-27T11:05:25.713Z,42.26
2019-06-27T11:07:55.499Z,41.74
2019-06-27T11:10:25.127Z,41.20
2019-06-27T11:12:54.847Z,40.51
2019-06-27T11:15:25.759Z,41.94
2019-06-27T11:17:55.682Z,40.24
2019-06-27T11:20:25.474Z,40.57
2019-06-27T11:22:55.169Z,41.43
2019-06-27T11:25:24.940Z,41.82
2019-06-27T11:27:54.901Z,40.53
2019-06-27T11:30:25.024Z,40.75
2019-06-27T11:32:54.682Z,40.50
2019-06-27T11:35:24.453Z,40.05
2019-06-27T11:37:54.327Z,40.52
2019-06-27T11:40:24.885Z,40.07
2019-06-27T11:42:54.917Z,41.47
2019-06-27T11:45:25.163Z,41.93
2019-06-27T11:47:54.853Z,41.99
2019-06-27T11:50:25.126Z,41.93
2019-06-27T11:52:54.978Z,41.20
2019-06-27T11:55:25.044Z,40.25
2019-06-27T11:57:56.712Z,40.30
2019-06-27T12:00:26.790Z,39.44
2019-06-27T12:02:57.000Z,38.93
2019-06-27T12:05:27.063Z,38.85
2019-06-27T12:07:56.642Z,40.80
2019-06-27T12:10:26.417Z,39.12
2019-06-27T12:12:56.153Z,38.96
2019-06-27T12:15:25.913Z,38.09
2019-06-27T12:17:55.666Z,38.66
2019-06-27T12:20:25.631Z,38.26
2019-06-27T12:22:56.867Z,37.20
2019-06-27T12:25:26.759Z,35.85
2019-06-27T12:27:56.606Z,34.52
2019-06-27T12:30:27.009Z,35.10
2019-06-27T12:32:57.146Z,36.60
2019-06-27T12:35:27.155Z,35.69
2019-06-27T12:37:56.854Z,34.33
2019-06-27T12:40:27.096Z,34.86
2019-06-27T12:42:57.105Z,32.60
2019-06-27T12:45:27.037Z,31.21
2019-06-27T12:47:56.810Z,30.99
2019-06-27T12:50:26.807Z,30.56
2019-06-27T12:52:56.737Z,29.33
2019-06-27T12:55:27.805Z,29.63
2019-06-27T12:57:57.622Z,28.50
2019-06-27T13:00:28.665Z,27.13
2019-06-27T13:02:59.102Z,26.43
2019-06-27T13:05:28.861Z,26.65
2019-06-27T13:07:58.777Z,25.86
2019-06-27T13:10:35.784Z,25.91
2019-06-27T13:13:06.408Z,26.53
2019-06-27T13:15:37.054Z,26.71
2019-06-27T13:18:06.975Z,26.81
2019-06-27T13:20:36.617Z,27.25
2019-06-27T13:23:06.478Z,24.27
2019-06-27T13:25:36.340Z,22.78
2019-06-27T13:28:06.032Z,22.73
2019-06-27T13:30:36.106Z,22.76
2019-06-27T13:33:06.192Z,22.61
2019-06-27T13:35:36.061Z,23.68
2019-06-27T13:38:05.766Z,23.30
2019-06-27T13:40:36.339Z,23.43
2019-06-27T13:43:06.056Z,24.20
2019-06-27T13:45:35.727Z,24.26
2019-06-27T13:48:07.309Z,24.63
2019-06-27T13:50:37.428Z,24.12
2019-06-27T13:53:07.428Z,26.55
2019-06-27T13:55:37.547Z,26.26
2019-06-27T13:58:07.254Z,26.48
2019-06-27T14:00:42.201Z,27.66
2019-06-27T14:03:12.162Z,26.42
2019-06-27T14:05:42.536Z,27.12
2019-06-27T14:08:12.641Z,27.50
2019-06-27T14:10:42.289Z,26.94
2019-06-27T14:13:11.971Z,26.96
2019-06-27T14:15:41.701Z,26.53
2019-06-27T14:18:11.329Z,26.67
2019-06-27T14:20:41.627Z,27.90
2019-06-27T14:23:11.366Z,26.60
2019-06-27T14:25:40.984Z,26.45
2019-06-27T14:28:11.954Z,26.50
2019-06-27T14:30:41.679Z,27.35
2019-06-27T14:33:11.627Z,26.48
2019-06-27T14:35:41.334Z,26.07
2019-06-27T14:38:11.016Z,25.42
2019-06-27T14:40:40.989Z,25.17
2019-06-27T14:43:10.713Z,25.62
2019-06-27T14:45:40.322Z,25.08
2019-06-27T14:48:10.497Z,25.11
2019-06-27T14:50:40.115Z,25.17
2019-06-27T14:53:09.918Z,24.10
2019-06-27T14:55:39.708Z,24.18
2019-06-27T14:58:09.420Z,24.12
2019-06-27T15:00:39.266Z,23.94
2019-06-27T15:03:09.197Z,23.94
2019-06-27T15:05:39.105Z,24.67
2019-06-27T15:08:08.782Z,24.78
2019-06-27T15:10:38.504Z,25.83
2019-06-27T15:13:08.099Z,25.59
2019-06-27T15:15:37.960Z,24.19
2019-06-27T15:18:07.547Z,24.04
2019-06-27T15:20:37.639Z,24.58
2019-06-27T15:23:07.295Z,23.67
2019-06-27T15:25:37.096Z,24.24
2019-06-27T15:28:06.662Z,23.57
2019-06-27T15:30:36.342Z,23.56
2019-06-27T15:33:06.164Z,23.29
2019-06-27T15:35:50.942Z,22.62
2019-06-27T15:38:07.383Z,22.38
2019-06-27T15:40:37.087Z,21.68
2019-06-27T15:43:06.801Z,21.63
2019-06-27T15:45:36.406Z,21.21
2019-06-27T15:48:06.213Z,20.70
2019-06-27T15:50:36.117Z,20.64
2019-06-27T15:53:05.775Z,21.13
2019-06-27T15:55:35.788Z,20.74
2019-06-27T15:58:05.504Z,20.25
2019-06-27T16:00:39.177Z,20.29
2019-06-27T16:03:06.791Z,20.80
2019-06-27T16:05:36.696Z,21.48
2019-06-27T16:08:06.405Z,21.55
2019-06-27T16:10:36.205Z,21.93
2019-06-27T16:13:05.960Z,22.17
2019-06-27T16:15:35.747Z,21.79
2019-06-27T16:18:05.712Z,21.55
2019-06-27T16:20:35.662Z,21.95
2019-06-27T16:23:05.538Z,22.23
2019-06-27T16:25:35.279Z,21.97
2019-06-27T16:28:04.980Z,21.60
2019-06-27T16:30:34.683Z,21.28
2019-06-27T16:33:04.283Z,21.48
2019-06-27T16:35:33.889Z,20.96
2019-06-27T16:38:03.534Z,21.07
2019-06-27T16:40:33.463Z,20.48
2019-06-27T16:43:03.141Z,21.49
2019-06-27T16:45:32.734Z,20.59
2019-06-27T16:48:02.615Z,20.92
2019-06-27T16:50:32.117Z,20.81
2019-06-27T16:53:01.763Z,19.90
2019-06-27T16:55:31.479Z,18.91
2019-06-27T16:58:01.272Z,18.84
2019-06-27T17:00:31.021Z,18.82
2019-06-27T17:03:00.732Z,19.10
2019-06-27T17:05:30.351Z,19.41
2019-06-27T17:07:59.946Z,19.33
2019-06-27T17:10:29.986Z,19.71
2019-06-27T17:12:59.598Z,19.28
2019-06-27T17:15:29.414Z,18.78
2019-06-27T17:17:59.221Z,18.84
2019-06-27T17:20:28.975Z,19.09
2019-06-27T17:22:58.622Z,18.96
2019-06-27T17:25:28.245Z,19.63
2019-06-27T17:27:57.925Z,18.54
2019-06-27T17:30:27.586Z,18.41
2019-06-27T17:32:57.281Z,18.71
2019-06-27T17:35:27.177Z,19.04
2019-06-27T17:37:56.764Z,19.23
2019-06-27T17:40:26.536Z,19.69
2019-06-27T17:42:56.304Z,19.91
2019-06-27T17:45:26.581Z,20.15
2019-06-27T17:47:56.684Z,20.26
2019-06-27T17:50:26.361Z,20.70
2019-06-27T17:52:56.024Z,20.72
2019-06-27T17:55:25.629Z,20.13
2019-06-27T17:57:55.407Z,19.44
2019-06-27T18:00:25.266Z,18.66
2019-06-27T18:02:55.485Z,18.64
2019-06-27T18:05:25.249Z,18.14
2019-06-27T18:07:55.000Z,17.82
2019-06-27T18:10:25.854Z,18.15
2019-06-27T18:12:55.626Z,18.28
2019-06-27T18:15:25.285Z,18.52
2019-06-27T18:17:55.006Z,18.52
2019-06-27T18:20:24.865Z,18.07
2019-06-27T18:22:54.653Z,18.49
2019-06-27T18:25:24.713Z,18.88
2019-06-27T18:27:54.470Z,18.75
2019-06-27T18:30:24.442Z,19.58
2019-06-27T18:32:54.226Z,20.15
2019-06-27T18:35:23.946Z,20.50
2019-06-27T18:37:54.275Z,21.03
2019-06-27T18:40:24.097Z,21.40
2019-06-27T18:42:53.751Z,21.38
2019-06-27T18:45:23.670Z,21.86
2019-06-27T18:47:53.271Z,22.03
2019-06-27T18:50:22.969Z,22.43
2019-06-27T18:52:52.678Z,22.35
2019-06-27T18:55:22.315Z,23.76
2019-06-27T18:57:52.021Z,22.83
2019-06-27T19:00:22.319Z,23.35
2019-06-27T19:02:51.961Z,22.97
2019-06-27T19:05:21.800Z,22.75
2019-06-27T19:07:51.524Z,22.94
2019-06-27T19:10:21.611Z,22.81
2019-06-27T19:12:51.815Z,22.54
2019-06-27T19:15:21.437Z,23.08
2019-06-27T19:17:51.023Z,22.71
2019-06-27T19:20:35.575Z,22.86
2019-06-27T19:23:23.017Z,22.96
2019-06-27T19:25:54.478Z,23.10
2019-06-27T19:28:24.124Z,23.66
2019-06-27T19:30:53.682Z,23.57
2019-06-27T19:33:23.332Z,23.92
2019-06-27T19:35:53.022Z,24.20
2019-06-27T19:38:22.697Z,24.38
2019-06-27T19:40:52.342Z,24.76
2019-06-27T19:43:27.685Z,25.11
2019-06-27T19:45:53.353Z,24.85
2019-06-27T19:48:23.063Z,25.04
2019-06-27T19:50:52.875Z,25.02
2019-06-27T19:53:22.491Z,25.59
2019-06-27T19:55:52.252Z,25.87
2019-06-27T19:58:21.852Z,25.74
2019-06-27T20:00:52.867Z,25.94
2019-06-27T20:03:23.609Z,26.16
2019-06-27T20:05:53.549Z,26.37
2019-06-27T20:08:23.115Z,26.55
2019-06-27T20:10:52.852Z,26.83
2019-06-27T20:13:22.812Z,27.03
2019-06-27T20:15:52.597Z,27.27
2019-06-27T20:18:22.531Z,27.46
2019-06-27T20:20:52.198Z,27.58
2019-06-27T20:23:22.068Z,28.42
2019-06-27T20:25:51.839Z,28.08
2019-06-27T20:28:21.807Z,28.16
2019-06-27T20:30:51.603Z,29.03
2019-06-27T20:33:21.395Z,28.75
2019-06-27T20:35:51.166Z,29.12
2019-06-27T20:38:33.826Z,29.40
2019-06-27T20:40:52.198Z,29.57
2019-06-27T20:43:21.774Z,29.84
2019-06-27T20:45:51.675Z,30.23
2019-06-27T20:48:21.555Z,30.39
2019-06-27T20:50:51.665Z,30.82
2019-06-27T20:53:21.340Z,31.59
2019-06-27T20:55:51.193Z,31.87
2019-06-27T20:58:21.370Z,31.92
2019-06-27T21:00:51.074Z,31.95
2019-06-27T21:03:20.634Z,32.50
2019-06-27T21:05:50.314Z,33.76
2019-06-27T21:08:20.017Z,33.78
2019-06-27T21:10:50.350Z,33.34
2019-06-27T21:13:20.253Z,33.71
2019-06-27T21:15:50.583Z,33.58
2019-06-27T21:18:20.663Z,34.19
2019-06-27T21:20:50.512Z,34.30
2019-06-27T21:23:20.141Z,34.55
2019-06-27T21:25:49.965Z,34.85
2019-06-27T21:28:19.756Z,35.00
2019-06-27T21:30:49.439Z,35.75
2019-06-27T21:33:19.101Z,36.53
2019-06-27T21:35:48.867Z,36.73
2019-06-27T21:38:18.538Z,36.68
2019-06-27T21:40:48.302Z,36.37
2019-06-27T21:43:17.896Z,36.14
2019-06-27T21:45:47.511Z,36.54
2019-06-27T21:48:17.057Z,36.45
2019-06-27T21:50:46.865Z,37.10
2019-06-27T21:53:16.389Z,36.62
2019-06-27T21:55:46.043Z,36.76
2019-06-27T21:58:15.730Z,37.10
2019-06-27T22:00:45.766Z,36.72
2019-06-27T22:03:15.720Z,36.79
2019-06-27T22:05:45.507Z,37.80
2019-06-27T22:08:15.165Z,36.98
2019-06-27T22:10:44.876Z,37.16
2019-06-27T22:13:14.750Z,36.91
2019-06-27T22:15:44.373Z,37.00
2019-06-27T22:18:14.156Z,37.85
2019-06-27T22:20:43.780Z,37.29
2019-06-27T22:23:13.379Z,38.19
2019-06-27T22:25:43.189Z,36.46
2019-06-27T22:28:12.890Z,36.31
2019-06-27T22:30:42.581Z,37.38
2019-06-27T22:33:12.417Z,37.41
2019-06-27T22:35:42.052Z,36.11
2019-06-27T22:38:29.353Z,36.31
2019-06-27T22:41:16.670Z,36.17
2019-06-27T22:44:04.244Z,36.42
2019-06-27T22:46:51.940Z,36.46
2019-06-27T22:49:21.137Z,35.65
2019-06-27T22:52:08.768Z,35.69
2019-06-27T22:54:40.542Z,36.51
2019-06-27T22:57:10.247Z,36.03
2019-06-27T22:59:40.105Z,36.76
2019-06-27T23:02:09.821Z,36.72
2019-06-27T23:04:39.617Z,37.22
2019-06-27T23:07:09.315Z,36.63
2019-06-27T23:09:38.994Z,36.47
2019-06-27T23:12:08.742Z,37.43
2019-06-27T23:14:38.409Z,36.69
2019-06-27T23:17:08.296Z,37.33
2019-06-27T23:19:37.983Z,37.80
2019-06-27T23:22:07.994Z,38.03
2019-06-27T23:24:37.569Z,37.66
2019-06-27T23:27:07.527Z,38.17
2019-06-27T23:29:37.266Z,38.22
2019-06-27T23:32:06.976Z,37.89
2019-06-27T23:34:37.045Z,37.52
2019-06-27T23:37:06.668Z,37.38
2019-06-27T23:39:36.288Z,37.33
2019-06-27T23:42:06.080Z,37.71
2019-06-27T23:44:35.674Z,37.64
2019-06-27T23:47:05.492Z,37.55
2019-06-27T23:49:35.220Z,37.76
2019-06-27T23:52:04.835Z,37.97
2019-06-27T23:54:34.653Z,38.07
2019-06-27T23:57:04.606Z,38.33
2019-06-27T23:59:34.343Z,38.91
